LOWW/VIE METAR and TAF weather

Enter ICAO airport designator
Station Type Date Time Source
LOWW METAR 2020/07/06 19:50 UTC NOAA

LOWW 061950Z 28016KT 9999 -RA FEW045 17/13 Q1014 NOSIG


Station Type Date Time Source
LOWW Decoded METAR 2020/07/06 19:50 UTC NOAA

Wien / Schwechat-Flughafen, Austria (LOWW) 48-07N 016-34E 190M
Jul 06, 2020 - 03:50 PM EDT / 2020.07.06 1950 UTC
Wind: from the W (280 degrees) at 18 MPH (16 KT):0
Visibility: greater than 7 mile(s):0
Sky conditions: mostly clear
Weather: light rain
Temperature: 62 F (17 C)
Dew Point: 55 F (13 C)
Relative Humidity: 77%
Pressure (altimeter): 29.94 in. Hg (1014 hPa)
ob: LOWW 061950Z 28016KT 9999 -RA FEW045 17/13 Q1014 NOSIG
cycle: 20

Station Type Date Time Source
LOWW TAF 2020/07/06 18:21 UTC NOAA

TAF LOWW 061715Z 0618/0724 31012KT 9999 FEW050 TX23/0714Z TN13/0724Z
TEMPO 0618/0624 32020G30KT -RA BKN050 PROB30
TEMPO 0618/0624 RA
TEMPO 0708/0715 32015G25KT
BECMG 0715/0717 36008KT

Example: see airport list